Time;durP1;ratioP1;P1;durP2;ratioP2;P2;SDS_P1;SDS_P2;PMS_P1;PMS_P2;Temp;Humidity;BMP_temperature;BMP_pressure;BME280_temperature;BME280_humidity;BME280_pressure;Samples;Min_cycle;Max_cycle;Signal;HPM_P1;HPM_P2
2022/02/26 00:00:23;;;;;;;37.05;14.27;;;;;;;-0.31;98.86;100057.66;5064288;28;20055;-70
2022/02/26 00:02:49;;;;;;;48.10;16.75;;;;;;;-0.31;99.24;100065.41;5064958;28;20084;-70
2022/02/26 00:05:14;;;;;;;38.40;14.40;;;;;;;-0.36;99.04;100066.94;5064483;28;20320;-70
2022/02/26 00:07:40;;;;;;;40.20;13.65;;;;;;;-0.35;99.63;100066.09;5064868;28;20029;-70
2022/02/26 00:10:06;;;;;;;38.03;15.18;;;;;;;-0.44;99.58;100069.97;5064693;28;20031;-70
2022/02/26 00:12:31;;;;;;;35.65;14.80;;;;;;;-0.45;99.62;100069.09;5064605;28;20029;-70
2022/02/26 00:14:56;;;;;;;35.63;12.18;;;;;;;-0.37;100.00;100067.75;5064399;28;20083;-70
2022/02/26 00:17:22;;;;;;;32.80;12.02;;;;;;;-0.45;99.46;100063.00;5064534;28;20025;-70
2022/02/26 00:19:47;;;;;;;42.08;13.05;;;;;;;-0.52;99.33;100066.13;5064616;28;20028;-70
2022/02/26 00:22:13;;;;;;;22.40;10.75;;;;;;;-0.46;99.64;100062.16;5064677;28;20076;-70
2022/02/26 00:24:38;;;;;;;31.27;10.98;;;;;;;-0.45;99.60;100063.91;5064392;28;20037;-70
2022/02/26 00:27:04;;;;;;;21.45;8.55;;;;;;;-0.48;99.55;100074.09;5064078;28;20317;-70
2022/02/26 00:29:32;;;;;;;21.77;9.30;;;;;;;-0.46;99.22;100079.34;5064491;28;20024;-70
2022/02/26 00:31:57;;;;;;;23.40;8.02;;;;;;;-0.56;98.98;100084.91;5064273;28;20094;-70
2022/02/26 00:34:23;;;;;;;26.98;7.68;;;;;;;-0.62;99.19;100095.88;5064314;28;20024;-70
2022/02/26 00:36:49;;;;;;;23.23;8.50;;;;;;;-0.62;99.29;100098.44;5064191;28;20048;-70
2022/02/26 00:39:15;;;;;;;15.60;6.40;;;;;;;-0.70;99.24;100092.00;5064005;28;20033;-70
2022/02/26 00:41:40;;;;;;;18.35;8.77;;;;;;;-0.72;99.30;100092.75;5064158;28;20025;-70
2022/02/26 00:44:06;;;;;;;22.83;7.90;;;;;;;-0.74;99.65;100089.19;5064068;28;20051;-70
2022/02/26 00:46:31;;;;;;;15.48;6.78;;;;;;;-0.75;98.93;100093.50;5063976;28;20076;-70
2022/02/26 00:51:41;;;;;;;23.92;7.60;;;;;;;-0.89;98.39;100094.53;5063984;28;20027;-70
2022/02/26 00:54:06;;;;;;;12.23;5.80;;;;;;;-0.97;97.95;100101.03;5064006;28;20022;-70
2022/02/26 00:56:32;;;;;;;16.77;7.43;;;;;;;-0.99;98.02;100102.63;5063805;28;20096;-70
2022/02/26 00:58:57;;;;;;;17.33;5.68;;;;;;;-0.98;98.63;100109.56;5063477;28;20021;-70
2022/02/26 01:01:23;;;;;;;35.28;7.75;;;;;;;-1.14;98.12;100101.03;5063869;28;20070;-70
2022/02/26 01:03:48;;;;;;;17.77;5.45;;;;;;;-1.11;98.92;100101.16;5063746;28;20048;-70
2022/02/26 01:06:14;;;;;;;13.05;5.57;;;;;;;-1.15;99.24;100099.22;5063800;28;20054;-70
2022/02/26 01:08:39;;;;;;;17.63;7.10;;;;;;;-1.17;99.40;100096.56;5063575;28;20024;-70
2022/02/26 01:11:05;;;;;;;33.25;7.43;;;;;;;-1.17;99.62;100096.56;5062862;28;20028;-70
2022/02/26 01:13:30;;;;;;;11.40;5.57;;;;;;;-1.18;99.65;100094.78;5063730;28;20089;-70
2022/02/26 01:15:56;;;;;;;17.85;8.10;;;;;;;-1.20;99.82;100099.00;5063528;28;20013;-70
2022/02/26 01:18:21;;;;;;;44.67;11.27;;;;;;;-1.14;100.00;100099.28;5063432;28;20020;-70
2022/02/26 01:20:47;;;;;;;18.23;8.88;;;;;;;-1.11;100.00;100094.28;5063407;28;20020;-70
2022/02/26 01:23:12;;;;;;;28.17;9.65;;;;;;;-1.12;100.00;100095.09;5063505;28;20063;-70
2022/02/26 01:25:38;;;;;;;28.35;8.98;;;;;;;-1.14;99.85;100099.28;5063422;28;20048;-70
2022/02/26 01:28:04;;;;;;;11.88;5.30;;;;;;;-1.11;99.40;100102.03;5063058;28;20020;-70
2022/02/26 01:30:29;;;;;;;20.40;5.95;;;;;;;-1.13;99.24;100101.09;5063298;28;20035;-70
2022/02/26 01:32:55;;;;;;;12.52;5.47;;;;;;;-1.19;98.85;100102.47;5063284;28;20080;-70
2022/02/26 01:35:20;;;;;;;20.65;7.75;;;;;;;-1.39;98.29;100093.72;5063358;28;20025;-70
2022/02/26 01:37:45;;;;;;;10.02;6.03;;;;;;;-1.39;98.45;100098.88;5063507;28;20313;-70
2022/02/26 01:40:11;;;;;;;17.90;5.68;;;;;;;-1.33;98.42;100101.78;5063131;28;20324;-70
2022/02/26 01:42:37;;;;;;;25.40;7.22;;;;;;;-1.31;98.27;100097.59;5063361;28;20040;-70
2022/02/26 01:45:10;;;;;;;11.63;6.03;;;;;;;-1.38;98.21;100105.84;5063213;28;20313;-70
2022/02/26 01:47:36;;;;;;;19.90;6.90;;;;;;;-1.44;98.14;100100.34;5063500;28;20265;-70
2022/02/26 01:50:02;;;;;;;17.73;7.03;;;;;;;-1.51;98.21;100108.59;5063143;28;20028;-70
2022/02/26 01:52:28;;;;;;;21.48;9.25;;;;;;;-1.50;98.35;100114.63;5063365;28;20045;-70
2022/02/26 01:54:53;;;;;;;15.48;7.95;;;;;;;-1.44;98.46;100115.84;5063211;28;20078;-70
2022/02/26 01:57:19;;;;;;;17.40;6.43;;;;;;;-1.42;98.35;100122.00;5063154;28;20041;-70
2022/02/26 01:59:44;;;;;;;14.73;6.88;;;;;;;-1.71;97.29;100109.25;5063087;28;20229;-70
2022/02/26 02:02:10;;;;;;;27.63;6.38;;;;;;;-1.78;97.61;100122.66;5063210;28;20021;-70
2022/02/26 02:04:35;;;;;;;26.15;6.78;;;;;;;-1.75;98.36;100122.81;5063232;28;20283;-70
2022/02/26 02:07:01;;;;;;;13.07;7.15;;;;;;;-1.70;98.15;100130.81;5063457;28;20261;-70
2022/02/26 02:09:26;;;;;;;12.27;6.72;;;;;;;-1.66;98.36;100132.72;5063023;28;20025;-70
2022/02/26 02:11:52;;;;;;;16.73;7.82;;;;;;;-1.64;98.83;100124.28;5062981;28;20051;-70
2022/02/26 02:14:18;;;;;;;12.88;5.18;;;;;;;-1.58;99.03;100126.28;5063059;28;20075;-70
2022/02/26 02:16:43;;;;;;;22.48;7.22;;;;;;;-1.67;98.53;100134.44;5062911;28;20077;-70
2022/02/26 02:19:10;;;;;;;14.85;6.95;;;;;;;-1.68;97.92;100135.22;5063035;28;20025;-70
2022/02/26 02:21:36;;;;;;;15.73;7.03;;;;;;;-1.68;97.50;100140.38;5063182;28;20025;-70
2022/02/26 02:24:03;;;;;;;14.60;5.88;;;;;;;-1.67;97.65;100134.44;5066110;28;20025;-70
2022/02/26 02:26:30;;;;;;;21.05;8.73;;;;;;;-1.81;97.32;100135.41;5066322;28;20037;-70
2022/02/26 02:28:57;;;;;;;39.22;9.93;;;;;;;-1.84;97.44;100127.50;5066939;28;20021;-70
2022/02/26 02:31:22;;;;;;;13.85;5.97;;;;;;;-1.88;97.22;100128.16;5066858;28;20212;-70
2022/02/26 02:33:49;;;;;;;22.13;8.00;;;;;;;-1.87;97.42;100136.78;5066554;28;20021;-70
2022/02/26 02:36:15;;;;;;;20.25;7.57;;;;;;;-1.94;98.01;100135.56;5066578;28;20028;-70
2022/02/26 02:38:40;;;;;;;23.75;6.68;;;;;;;-1.91;98.54;100135.72;5066221;28;20217;-71
2022/02/26 02:41:06;;;;;;;15.02;6.78;;;;;;;-1.84;98.65;100132.66;5066450;28;20025;-70
2022/02/26 02:43:32;;;;;;;27.70;8.48;;;;;;;-1.77;98.84;100145.06;5066346;28;20028;-70
2022/02/26 02:45:58;;;;;;;16.45;7.03;;;;;;;-1.76;99.36;100136.53;5066331;28;20021;-69
2022/02/26 02:48:24;;;;;;;18.25;8.20;;;;;;;-1.76;99.29;100149.44;5066013;28;20020;-70
2022/02/26 02:50:50;;;;;;;18.88;7.88;;;;;;;-1.89;98.58;100149.59;5066316;28;20384;-70
2022/02/26 02:53:18;;;;;;;26.98;8.45;;;;;;;-1.87;98.70;100160.88;5066111;28;20025;-70
2022/02/26 02:55:49;;;;;;;21.65;8.18;;;;;;;-1.80;98.88;100159.53;5066500;28;20063;-70
2022/02/26 02:58:22;;;;;;;18.20;7.78;;;;;;;-1.65;99.18;100165.50;5066109;28;20262;-70
2022/02/26 03:00:48;;;;;;;23.23;8.52;;;;;;;-1.54;99.05;100169.50;5066040;28;20044;-70
2022/02/26 03:03:13;;;;;;;21.30;9.30;;;;;;;-1.64;99.10;100168.16;5065937;28;20090;-70
2022/02/26 03:05:39;;;;;;;12.50;5.82;;;;;;;-1.58;99.01;100168.44;5065908;28;20032;-70
2022/02/26 03:08:04;;;;;;;28.98;10.23;;;;;;;-1.39;98.94;100170.31;5066016;28;20021;-70
2022/02/26 03:10:30;;;;;;;25.05;6.75;;;;;;;-1.27;98.95;100171.81;5065712;28;20081;-70
2022/02/26 03:12:55;;;;;;;12.75;7.03;;;;;;;-1.18;98.61;100172.28;5065804;28;20025;-70
2022/02/26 03:15:22;;;;;;;12.80;6.15;;;;;;;-1.15;98.29;100175.03;5065803;28;20044;-70
2022/02/26 03:17:48;;;;;;;28.63;10.40;;;;;;;-1.21;98.55;100178.97;5065709;28;20040;-70
2022/02/26 03:20:14;;;;;;;15.27;7.45;;;;;;;-1.25;97.87;100177.97;5065704;28;20059;-70
2022/02/26 03:22:39;;;;;;;23.15;7.75;;;;;;;-1.13;98.01;100182.88;5065363;28;20029;-70
2022/02/26 03:25:06;;;;;;;26.05;8.57;;;;;;;-1.24;97.31;100177.16;5065368;28;20024;-70
2022/02/26 03:27:32;;;;;;;14.63;6.55;;;;;;;-1.31;97.72;100169.91;5065590;28;20083;-70
2022/02/26 03:29:57;;;;;;;14.65;7.70;;;;;;;-1.24;97.83;100179.72;5065489;28;20076;-70
2022/02/26 03:32:22;;;;;;;14.10;6.82;;;;;;;-1.16;97.75;100175.84;5065350;28;20031;-70
2022/02/26 03:34:50;;;;;;;19.00;7.53;;;;;;;-1.11;97.88;100184.72;5064526;28;20044;-70
2022/02/26 03:37:16;;;;;;;26.95;8.63;;;;;;;-1.01;98.17;100178.31;5065720;28;20024;-70
2022/02/26 03:39:41;;;;;;;15.48;6.05;;;;;;;-0.96;98.47;100185.50;5065095;28;20021;-70
2022/02/26 03:42:08;;;;;;;20.85;7.82;;;;;;;-0.99;98.03;100182.75;5065247;28;20032;-70
2022/02/26 03:44:34;;;;;;;19.58;6.82;;;;;;;-1.01;98.45;100179.19;5065153;28;20039;-70
2022/02/26 03:47:01;;;;;;;17.58;7.50;;;;;;;-0.93;98.37;100185.63;5065163;28;20048;-70
2022/02/26 03:49:27;;;;;;;14.85;8.00;;;;;;;-0.94;97.86;100186.47;5065189;28;20028;-70
2022/02/26 03:51:53;;;;;;;19.42;7.38;;;;;;;-0.86;97.21;100192.88;5065172;28;20025;-70
2022/02/26 03:54:18;;;;;;;19.73;9.00;;;;;;;-1.02;97.27;100190.34;5063791;28;20116;-70
2022/02/26 03:56:44;;;;;;;23.98;8.02;;;;;;;-1.00;97.56;100188.75;5064832;28;20020;-70
2022/02/26 03:59:10;;;;;;;19.30;7.00;;;;;;;-0.85;98.01;100192.06;5064816;28;20049;-70
2022/02/26 04:01:36;;;;;;;28.35;7.63;;;;;;;-0.77;97.59;100203.69;5065084;28;20025;-70
2022/02/26 04:04:02;;;;;;;23.58;8.60;;;;;;;-0.82;97.54;100194.81;5064795;28;20025;-71
2022/02/26 04:06:28;;;;;;;27.48;6.78;;;;;;;-0.77;97.65;100198.53;5064736;28;20051;-69
2022/02/26 04:08:53;;;;;;;19.33;7.32;;;;;;;-0.79;97.30;100194.09;5064879;28;20074;-70
2022/02/26 04:11:18;;;;;;;17.13;7.88;;;;;;;-0.72;97.31;100197.06;5064722;28;20032;-70
2022/02/26 04:13:44;;;;;;;13.07;6.95;;;;;;;-0.60;97.38;100210.56;5064833;28;20025;-70
2022/02/26 04:16:09;;;;;;;14.90;6.07;;;;;;;-0.54;97.32;100204.84;5064476;28;20021;-70
2022/02/26 04:18:35;;;;;;;14.27;6.75;;;;;;;-0.54;96.96;100213.47;5064730;28;20423;-70
2022/02/26 04:21:01;;;;;;;15.80;8.40;;;;;;;-0.64;97.43;100211.25;5064483;28;20025;-70
2022/02/26 04:23:26;;;;;;;16.73;7.45;;;;;;;-0.52;97.25;100214.44;5064563;28;20110;-70
2022/02/26 04:25:51;;;;;;;15.43;7.68;;;;;;;-0.64;97.51;100208.66;5064363;28;20088;-70
2022/02/26 04:28:17;;;;;;;34.92;8.95;;;;;;;-0.57;97.63;100215.91;5064073;28;20364;-70
2022/02/26 04:30:43;;;;;;;18.30;7.53;;;;;;;-0.58;97.34;100216.72;5064467;28;20221;-70
2022/02/26 04:33:08;;;;;;;24.08;7.03;;;;;;;-0.54;97.57;100213.47;5064277;28;20021;-70
2022/02/26 04:35:35;;;;;;;16.30;7.22;;;;;;;-0.46;97.71;100230.25;5064266;28;20190;-70
2022/02/26 04:38:00;;;;;;;13.82;6.53;;;;;;;-0.37;98.07;100232.41;5064079;28;20021;-70
2022/02/26 04:40:26;;;;;;;13.60;6.95;;;;;;;-0.41;97.82;100226.19;5064277;28;20075;-70
2022/02/26 04:42:52;;;;;;;13.68;6.32;;;;;;;-0.35;97.63;100226.47;5064161;28;20028;-70
2022/02/26 04:45:17;;;;;;;10.73;6.60;;;;;;;-0.36;97.62;100229.88;5064025;28;20088;-70
2022/02/26 04:47:43;;;;;;;10.25;5.30;;;;;;;-0.29;97.59;100231.94;5063884;28;20029;-70
2022/02/26 04:50:12;;;;;;;20.23;8.07;;;;;;;-0.35;97.98;100226.47;5064076;28;20262;-70
2022/02/26 04:52:38;;;;;;;13.85;6.80;;;;;;;-0.28;97.42;100235.44;5064101;28;20028;-70
2022/02/26 04:55:05;;;;;;;13.32;5.30;;;;;;;-0.34;97.42;100233.41;5063845;28;20043;-70
2022/02/26 04:57:31;;;;;;;25.55;8.05;;;;;;;-0.29;97.72;100236.22;5063823;28;20086;-70
2022/02/26 04:59:56;;;;;;;20.90;7.10;;;;;;;-0.53;97.29;100225.56;5063423;28;20036;-70
2022/02/26 05:02:22;;;;;;;19.73;8.45;;;;;;;-0.57;97.78;100234.00;5063934;28;20044;-70
2022/02/26 05:04:48;;;;;;;22.65;7.38;;;;;;;-0.48;97.93;100228.38;5063807;28;20051;-70
2022/02/26 05:07:15;;;;;;;25.75;8.55;;;;;;;-0.47;98.04;100236.22;5063714;28;20028;-70
2022/02/26 05:09:43;;;;;;;18.23;7.30;;;;;;;-0.55;98.09;100237.56;5063677;28;20048;-70
2022/02/26 05:12:09;;;;;;;30.40;8.70;;;;;;;-0.52;98.21;100237.72;5063645;28;20020;-70
2022/02/26 05:14:35;;;;;;;13.50;7.13;;;;;;;-0.47;97.87;100238.81;5063852;28;20031;-70
2022/02/26 05:17:00;;;;;;;20.98;8.18;;;;;;;-0.43;98.27;100251.09;5063571;28;20080;-70
2022/02/26 05:19:26;;;;;;;25.52;8.68;;;;;;;-0.41;98.34;100241.69;5063520;28;20062;-70
2022/02/26 05:21:51;;;;;;;17.40;7.85;;;;;;;-0.41;97.84;100244.28;5063483;28;20020;-70
2022/02/26 05:24:17;;;;;;;19.52;8.13;;;;;;;-0.39;97.70;100250.44;5055251;28;20331;-70
2022/02/26 05:26:42;;;;;;;14.45;7.55;;;;;;;-0.48;98.08;100255.16;5063295;28;20066;-70
2022/02/26 05:29:08;;;;;;;23.17;7.70;;;;;;;-0.40;97.93;100253.84;5063316;28;20021;-70
2022/02/26 05:31:34;;;;;;;16.17;8.70;;;;;;;-0.35;98.15;100262.69;5063418;28;20091;-70
2022/02/26 05:33:59;;;;;;;21.98;9.13;;;;;;;-0.28;98.04;100254.41;5063326;28;20025;-70
2022/02/26 05:36:25;;;;;;;20.45;8.80;;;;;;;-0.18;98.17;100261.81;5063373;28;20013;-70
2022/02/26 05:38:50;;;;;;;13.82;7.63;;;;;;;-0.14;97.45;100263.75;5063537;28;20036;-70
2022/02/26 05:41:16;;;;;;;24.15;7.68;;;;;;;-0.17;97.83;100263.59;5063159;28;20026;-70
2022/02/26 05:43:41;;;;;;;18.98;7.47;;;;;;;-0.19;97.79;100275.56;5062313;28;20020;-70
2022/02/26 05:46:07;;;;;;;15.63;7.28;;;;;;;-0.18;97.77;100271.28;5063269;28;20024;-70
2022/02/26 05:48:32;;;;;;;20.90;8.05;;;;;;;-0.22;97.99;100270.22;5063177;28;20017;-70
2022/02/26 05:50:58;;;;;;;17.27;7.55;;;;;;;-0.26;97.68;100272.59;5063400;28;20031;-70
2022/02/26 05:53:23;;;;;;;12.48;7.57;;;;;;;-0.26;97.56;100268.31;5063061;28;20096;-70
2022/02/26 05:55:49;;;;;;;11.52;5.65;;;;;;;-0.15;97.82;100277.47;5063330;28;20076;-70
2022/02/26 05:58:14;;;;;;;18.42;7.07;;;;;;;-0.15;97.67;100287.81;5065186;28;20017;-70
2022/02/26 06:00:40;;;;;;;14.93;7.43;;;;;;;-0.30;97.91;100284.50;5067114;28;20029;-70
2022/02/26 06:03:05;;;;;;;21.77;8.35;;;;;;;-0.26;97.59;100281.25;5067300;28;20063;-70
2022/02/26 06:05:31;;;;;;;15.45;7.32;;;;;;;-0.24;98.10;100270.97;5067106;28;20028;-70
2022/02/26 06:07:56;;;;;;;24.67;9.98;;;;;;;-0.22;98.15;100283.16;5067051;28;20024;-70
2022/02/26 06:10:22;;;;;;;27.42;9.27;;;;;;;-0.13;98.42;100286.22;5066988;28;20066;-70
2022/02/26 06:12:47;;;;;;;24.50;9.27;;;;;;;0.04;98.11;100300.84;5066676;28;20313;-70
2022/02/26 06:15:13;;;;;;;22.90;8.43;;;;;;;0.10;98.04;100296.78;5067005;28;20020;-70
2022/02/26 06:17:39;;;;;;;20.10;9.48;;;;;;;0.14;97.71;100297.00;5066603;28;20328;-70
2022/02/26 06:20:07;;;;;;;23.08;9.18;;;;;;;0.14;97.61;100290.94;5067205;28;20241;-70
2022/02/26 06:22:33;;;;;;;20.88;8.88;;;;;;;0.00;97.72;100283.41;5067110;28;20020;-70
2022/02/26 06:24:59;;;;;;;23.88;10.85;;;;;;;0.06;98.17;100292.28;5066465;28;20346;-70
2022/02/26 06:27:24;;;;;;;29.75;9.52;;;;;;;0.06;97.83;100287.13;5066662;28;20025;-70
2022/02/26 06:29:50;;;;;;;30.48;9.23;;;;;;;0.01;97.91;100287.75;5066471;28;20309;-70
2022/02/26 06:32:15;;;;;;;24.60;11.15;;;;;;;0.18;97.45;100300.66;5066414;28;20021;-70
2022/02/26 06:34:41;;;;;;;28.27;12.18;;;;;;;0.15;97.96;100290.16;5066395;28;20084;-70
2022/02/26 06:37:06;;;;;;;22.73;10.63;;;;;;;0.19;97.80;100284.28;5066541;28;20089;-70
2022/02/26 06:39:32;;;;;;;40.75;10.55;;;;;;;0.22;97.56;100289.63;5066431;28;20024;-70
2022/02/26 06:41:57;;;;;;;29.25;8.40;;;;;;;0.22;97.63;100289.63;5066821;28;20024;-70
2022/02/26 06:44:23;;;;;;;19.17;9.10;;;;;;;0.17;97.66;100291.09;5064598;28;20371;-70
2022/02/26 06:46:49;;;;;;;23.27;9.40;;;;;;;0.09;98.08;100288.13;5065531;28;20046;-70
2022/02/26 06:49:15;;;;;;;24.73;10.52;;;;;;;0.19;97.95;100290.34;5065512;28;20032;-70
2022/02/26 06:51:41;;;;;;;19.10;9.23;;;;;;;0.23;97.41;100292.28;5065525;28;20025;-70
2022/02/26 06:54:06;;;;;;;25.85;8.38;;;;;;;0.34;97.32;100282.44;5065287;28;20025;-70
2022/02/26 06:56:33;;;;;;;18.83;8.45;;;;;;;0.43;97.54;100290.59;5065039;28;20066;-70
2022/02/26 06:58:58;;;;;;;24.75;8.90;;;;;;;0.47;97.32;100297.72;5065355;28;20021;-70
2022/02/26 07:01:24;;;;;;;22.00;9.30;;;;;;;0.54;97.73;100292.00;5065107;28;20028;-70
2022/02/26 07:03:49;;;;;;;18.95;7.68;;;;;;;0.64;97.17;100291.59;5065179;28;20077;-70
2022/02/26 07:06:15;;;;;;;16.90;9.25;;;;;;;0.67;96.28;100294.34;5065067;28;20017;-70
2022/02/26 07:08:40;;;;;;;17.20;8.40;;;;;;;0.64;96.06;100291.59;5064209;28;20040;-70
2022/02/26 07:11:06;;;;;;;23.35;9.27;;;;;;;0.55;96.02;100292.06;5064072;28;20339;-70
2022/02/26 07:13:31;;;;;;;24.92;8.90;;;;;;;0.83;96.07;100299.41;5064885;28;20035;-70
2022/02/26 07:16:00;;;;;;;20.65;9.02;;;;;;;1.00;96.16;100298.44;5064975;28;20084;-70
2022/02/26 07:18:26;;;;;;;15.82;9.02;;;;;;;1.10;95.89;100295.44;5060848;28;20052;-70
2022/02/26 07:20:51;;;;;;;23.70;8.10;;;;;;;1.15;95.77;100294.84;5064676;28;20028;-70
2022/02/26 07:23:17;;;;;;;36.40;9.10;;;;;;;1.29;95.41;100303.19;5064538;28;20063;-70
2022/02/26 07:25:45;;;;;;;18.98;8.35;;;;;;;1.34;95.07;100312.97;5064535;28;20317;-70
2022/02/26 07:28:11;;;;;;;19.80;7.22;;;;;;;1.40;94.64;100307.16;5064622;28;20025;-70
2022/02/26 07:30:37;;;;;;;16.73;7.55;;;;;;;1.63;94.82;100294.34;5064695;28;20088;-70
2022/02/26 07:33:03;;;;;;;20.58;9.70;;;;;;;1.74;94.61;100312.97;5064756;28;20059;-70
2022/02/26 07:35:28;;;;;;;14.75;7.18;;;;;;;1.97;93.58;100318.25;5063861;28;20028;-70
2022/02/26 07:37:53;;;;;;;17.75;7.45;;;;;;;2.11;93.22;100329.22;5064571;28;20021;-70
2022/02/26 07:40:19;;;;;;;17.65;8.23;;;;;;;2.18;92.77;100313.94;5064398;28;20279;-70
2022/02/26 07:42:45;;;;;;;16.77;7.82;;;;;;;2.58;92.00;100326.81;5064390;28;20024;-70
2022/02/26 07:45:10;;;;;;;19.15;7.57;;;;;;;2.80;91.14;100332.00;5064111;28;20032;-70
2022/02/26 07:47:36;;;;;;;18.92;8.07;;;;;;;2.95;90.14;100332.59;5064285;28;20032;-70
2022/02/26 07:50:02;;;;;;;16.30;7.45;;;;;;;3.49;89.03;100329.38;5064153;28;20017;-70
2022/02/26 07:52:31;;;;;;;18.40;7.18;;;;;;;3.52;87.89;100324.28;5063807;28;20028;-70
2022/02/26 07:54:57;;;;;;;13.27;6.70;;;;;;;4.12;86.37;100331.56;5064235;28;20023;-70
2022/02/26 07:57:22;;;;;;;15.98;5.97;;;;;;;4.61;84.31;100343.56;5064076;28;20084;-70
2022/02/26 07:59:48;;;;;;;15.70;6.20;;;;;;;5.04;82.26;100336.22;5063987;28;20366;-70
2022/02/26 08:02:13;;;;;;;18.45;7.50;;;;;;;5.22;79.53;100329.78;5064543;28;20339;-70
2022/02/26 08:04:39;;;;;;;14.48;6.80;;;;;;;5.66;78.28;100337.13;5065658;28;20028;-70
2022/02/26 08:07:05;;;;;;;12.45;5.78;;;;;;;6.07;78.19;100335.63;5064666;28;20107;-70
2022/02/26 08:09:30;;;;;;;14.65;6.55;;;;;;;6.15;76.47;100334.09;5064808;28;20029;-70
2022/02/26 08:11:57;;;;;;;18.08;7.10;;;;;;;6.72;76.50;100335.50;5064781;28;20088;-71
2022/02/26 08:14:23;;;;;;;18.52;7.20;;;;;;;6.68;75.27;100323.22;5064803;28;20021;-67
2022/02/26 08:16:48;;;;;;;20.60;8.07;;;;;;;6.42;75.33;100324.31;5064725;28;20016;-70
2022/02/26 08:19:14;;;;;;;15.10;8.80;;;;;;;6.73;75.18;100332.03;5064526;28;20243;-69
2022/02/26 08:21:39;;;;;;;33.10;12.02;;;;;;;7.23;74.29;100331.41;5064540;28;20051;-68
2022/02/26 08:24:06;;;;;;;26.45;12.43;;;;;;;7.71;73.66;100335.00;5064397;28;20219;-68
2022/02/26 08:26:32;;;;;;;29.45;12.00;;;;;;;8.31;72.12;100343.97;5064466;28;20058;-68
2022/02/26 08:28:58;;;;;;;31.38;13.10;;;;;;;8.70;70.36;100349.84;5064736;28;20045;-68
2022/02/26 08:31:23;;;;;;;23.02;10.65;;;;;;;9.13;68.93;100339.97;5064313;28;20198;-68
2022/02/26 08:33:49;;;;;;;21.98;10.10;;;;;;;9.60;67.77;100339.72;5064417;28;20052;-68
2022/02/26 08:36:15;;;;;;;19.85;9.60;;;;;;;10.22;65.93;100328.09;5064074;28;20028;-68
2022/02/26 08:38:40;;;;;;;19.65;10.20;;;;;;;10.45;65.12;100304.59;5064462;28;20021;-68
2022/02/26 08:41:06;;;;;;;16.60;8.13;;;;;;;9.75;66.60;100292.53;5064180;28;20084;-68
2022/02/26 08:43:31;;;;;;;19.58;8.63;;;;;;;10.42;66.34;100304.59;5064391;28;20068;-69
2022/02/26 08:45:57;;;;;;;13.77;7.53;;;;;;;10.86;63.12;100297.88;5064140;28;20313;-69
2022/02/26 08:48:22;;;;;;;17.27;7.65;;;;;;;10.73;61.94;100296.03;5063942;28;20033;-69
2022/02/26 08:50:48;;;;;;;16.75;7.47;;;;;;;11.21;61.28;100312.13;5063920;28;20390;-69
2022/02/26 08:53:13;;;;;;;13.27;6.53;;;;;;;11.55;59.75;100385.19;5064043;28;20373;-69
2022/02/26 08:55:39;;;;;;;14.43;6.15;;;;;;;11.81;59.42;100337.84;5064080;28;20225;-69
2022/02/26 08:58:04;;;;;;;10.38;5.95;;;;;;;11.39;58.73;100374.59;5063891;28;20088;-69
2022/02/26 09:00:29;;;;;;;17.25;6.28;;;;;;;11.03;62.27;100354.16;5063877;28;20483;-69
2022/02/26 09:02:56;;;;;;;10.77;5.30;;;;;;;11.37;56.34;100339.41;5063857;28;20077;-69
2022/02/26 09:05:21;;;;;;;20.05;6.80;;;;;;;11.49;59.10;100472.22;5063706;28;20033;-69
2022/02/26 09:07:47;;;;;;;15.07;5.95;;;;;;;11.92;59.34;100368.66;5063916;28;20088;-68
2022/02/26 09:10:13;;;;;;;20.77;5.65;;;;;;;11.27;58.09;100501.94;5063631;28;20021;-69
2022/02/26 09:12:39;;;;;;;15.75;4.15;;;;;;;11.90;57.93;100407.34;5063764;28;20069;-69
2022/02/26 09:15:05;;;;;;;18.50;4.55;;;;;;;12.11;57.45;100359.91;5063657;28;20021;-68
2022/02/26 09:17:31;;;;;;;11.93;3.95;;;;;;;12.77;51.52;100341.47;5063959;28;20025;-68
2022/02/26 09:19:56;;;;;;;12.00;3.38;;;;;;;12.14;48.72;100322.06;5063936;28;20143;-69
2022/02/26 09:22:22;;;;;;;13.52;4.55;;;;;;;12.04;52.46;100318.56;5063902;28;20252;-69
2022/02/26 09:24:47;;;;;;;19.83;6.10;;;;;;;12.28;56.33;100315.94;5063992;28;20053;-69
2022/02/26 09:27:13;;;;;;;10.25;3.60;;;;;;;12.58;53.85;100320.34;5063668;28;20073;-69
2022/02/26 09:29:38;;;;;;;9.60;3.05;;;;;;;12.56;52.22;100312.41;5063717;28;20032;-69
2022/02/26 09:32:04;;;;;;;12.60;3.05;;;;;;;12.02;54.87;100314.16;5063144;28;20269;-69
2022/02/26 09:34:30;;;;;;;11.85;3.17;;;;;;;12.65;51.73;100322.09;5063813;28;20025;-68
2022/02/26 09:36:56;;;;;;;9.93;2.58;;;;;;;12.96;48.28;100318.53;5063761;28;20025;-68
2022/02/26 09:39:22;;;;;;;13.00;2.65;;;;;;;12.64;49.23;100321.22;5063724;28;20028;-68
2022/02/26 09:41:50;;;;;;;9.02;2.28;;;;;;;11.77;50.52;100305.31;5063502;28;20025;-69
2022/02/26 09:44:17;;;;;;;11.35;2.60;;;;;;;11.48;51.04;100320.13;5063689;28;20036;-69
2022/02/26 09:46:43;;;;;;;11.73;2.30;;;;;;;10.87;48.68;100302.25;5063706;28;20021;-69
2022/02/26 09:49:09;;;;;;;14.07;2.63;;;;;;;9.99;51.63;100299.78;5063644;28;20064;-69
2022/02/26 09:51:41;;;;;;;7.65;2.08;;;;;;;10.41;51.26;100314.22;5063712;28;20028;-69
2022/02/26 09:54:07;;;;;;;10.75;2.47;;;;;;;11.10;51.44;100308.53;5063930;28;20052;-69
2022/02/26 09:56:32;;;;;;;9.55;2.05;;;;;;;11.39;52.02;100316.59;5063595;28;20336;-69
2022/02/26 09:58:58;;;;;;;8.57;2.88;;;;;;;10.83;54.20;100308.38;5063349;28;20313;-69
2022/02/26 10:01:23;;;;;;;10.88;2.95;;;;;;;11.69;55.59;100317.59;5063600;28;20021;-69
2022/02/26 10:03:49;;;;;;;13.13;2.72;;;;;;;11.70;52.62;100303.53;5063609;28;20024;-69
2022/02/26 10:06:19;;;;;;;12.98;3.60;;;;;;;10.93;53.64;100305.81;5063421;28;20020;-67
2022/02/26 10:08:53;;;;;;;21.67;4.15;;;;;;;10.97;54.38;100304.06;5063416;28;20084;-67
2022/02/26 10:11:26;;;;;;;11.40;2.58;;;;;;;10.82;56.37;100293.44;5063248;28;20028;-68
2022/02/26 10:14:12;;;;;;;6.47;1.70;;;;;;;10.95;51.39;100304.06;5063437;28;20021;-68
2022/02/26 10:16:48;;;;;;;13.85;2.40;;;;;;;10.83;51.28;100305.75;5063200;28;20221;-68
2022/02/26 10:19:31;;;;;;;15.88;1.90;;;;;;;10.73;48.92;100309.22;5063345;28;20029;-68
2022/02/26 10:21:59;;;;;;;12.18;1.50;;;;;;;10.38;47.17;100297.53;5063368;28;20048;-68
2022/02/26 10:24:27;;;;;;;12.60;2.03;;;;;;;10.85;49.33;100301.34;5063262;28;20047;-68
2022/02/26 10:26:55;;;;;;;28.02;2.65;;;;;;;10.44;48.90;100297.59;5063510;28;20378;-68
2022/02/26 10:29:23;;;;;;;11.48;2.35;;;;;;;9.98;51.25;100290.13;5063093;28;20028;-68
2022/02/26 10:31:54;;;;;;;5.45;1.58;;;;;;;9.63;50.32;100286.28;5063273;28;20028;-68
2022/02/26 10:34:29;;;;;;;8.40;1.88;;;;;;;9.66;49.88;100292.44;5063137;28;20025;-68
2022/02/26 10:37:18;;;;;;;8.07;1.65;;;;;;;9.99;49.18;100294.50;5063295;28;20324;-68
2022/02/26 10:39:52;;;;;;;18.42;2.08;;;;;;;9.49;53.35;100295.78;5063296;28;20021;-68
2022/02/26 10:42:23;;;;;;;12.43;1.67;;;;;;;9.22;50.34;100282.28;5063192;28;20047;-68
2022/02/26 10:45:04;;;;;;;11.18;1.42;;;;;;;8.69;52.22;100290.34;5066071;28;20024;-68
2022/02/26 10:47:32;;;;;;;11.55;1.42;;;;;;;8.76;51.86;100289.56;5066720;28;20067;-68
2022/02/26 10:49:58;;;;;;;7.35;1.38;;;;;;;9.27;50.25;100288.50;5066715;28;20095;-68
2022/02/26 10:52:33;;;;;;;7.18;1.67;;;;;;;9.94;50.83;100285.72;5066662;28;20025;-68
2022/02/26 10:55:06;;;;;;;14.13;2.10;;;;;;;10.53;50.08;100303.78;5066656;28;20025;-68
2022/02/26 10:57:32;;;;;;;5.78;1.38;;;;;;;10.40;53.22;100285.25;5066845;28;20028;-68
2022/02/26 10:59:58;;;;;;;5.20;1.55;;;;;;;10.23;53.76;100286.88;5064547;28;20232;-68
2022/02/26 11:02:25;;;;;;;12.27;2.17;;;;;;;10.05;54.38;100276.16;5065542;28;20066;-68
2022/02/26 11:04:56;;;;;;;10.60;2.00;;;;;;;10.30;55.02;100288.69;5065695;28;20213;-68
2022/02/26 11:07:23;;;;;;;10.63;1.60;;;;;;;10.32;54.05;100272.03;5065429;28;20035;-68
2022/02/26 11:09:54;;;;;;;12.10;1.88;;;;;;;10.00;51.10;100268.22;5065598;28;20021;-68
2022/02/26 11:12:27;;;;;;;5.05;1.30;;;;;;;10.06;48.26;100264.78;5064920;28;20032;-68
2022/02/26 11:15:03;;;;;;;5.57;1.23;;;;;;;9.73;48.57;100275.88;5065294;28;20029;-68
2022/02/26 11:17:30;;;;;;;10.15;2.08;;;;;;;9.30;48.43;100265.75;5065173;28;20402;-68